createdAt,value
2022-08-02T00:01:06.298Z,18.80
2022-08-02T00:03:34.795Z,18.70
2022-08-02T00:06:04.183Z,18.10
2022-08-02T00:08:33.445Z,18.70
2022-08-02T00:11:02.006Z,18.60
2022-08-02T00:13:35.853Z,18.30
2022-08-02T00:16:05.094Z,18.30
2022-08-02T00:18:33.628Z,18.50
2022-08-02T00:21:02.128Z,18.50
2022-08-02T00:23:32.533Z,17.20
2022-08-02T00:26:21.036Z,18.40
2022-08-02T00:28:51.132Z,17.30
2022-08-02T00:31:19.628Z,18.50
2022-08-02T00:34:26.255Z,17.70
2022-08-02T00:36:36.924Z,18.50
2022-08-02T00:39:05.652Z,18.50
2022-08-02T00:41:55.578Z,18.50
2022-08-02T00:44:26.086Z,18.50
2022-08-02T00:46:54.592Z,18.40
2022-08-02T00:49:23.280Z,18.40
2022-08-02T00:51:53.289Z,17.50
2022-08-02T00:54:23.309Z,18.00
2022-08-02T00:56:51.857Z,18.00
2022-08-02T00:59:20.347Z,18.00
2022-08-02T01:01:56.914Z,18.20
2022-08-02T01:04:31.283Z,18.30
2022-08-02T01:07:01.748Z,18.30
2022-08-02T01:09:30.238Z,18.40
2022-08-02T01:11:59.052Z,18.30
2022-08-02T01:14:31.919Z,18.30
2022-08-02T01:17:09.932Z,18.00
2022-08-02T01:19:52.670Z,18.10
2022-08-02T01:23:03.232Z,18.10
2022-08-02T01:25:58.310Z,18.10
2022-08-02T01:28:38.951Z,18.10
2022-08-02T01:31:17.926Z,18.10
2022-08-02T01:33:54.557Z,18.10
2022-08-02T01:36:27.477Z,16.80
2022-08-02T01:38:57.810Z,18.20
2022-08-02T01:41:29.755Z,18.20
2022-08-02T01:44:02.400Z,17.70
2022-08-02T01:46:35.857Z,18.30
2022-08-02T01:49:11.014Z,17.60
2022-08-02T01:52:00.122Z,18.30
2022-08-02T01:54:33.588Z,18.20
2022-08-02T01:57:05.152Z,18.30
2022-08-02T01:59:37.273Z,18.20
2022-08-02T02:02:10.334Z,18.30
2022-08-02T02:04:40.302Z,18.20
2022-08-02T02:07:10.441Z,18.10
2022-08-02T02:09:49.258Z,18.20
2022-08-02T02:12:20.873Z,18.00
2022-08-02T02:14:52.312Z,18.00
2022-08-02T02:17:50.660Z,18.00
2022-08-02T02:20:16.541Z,18.10
2022-08-02T02:22:45.916Z,18.00
2022-08-02T02:25:36.098Z,18.10
2022-08-02T02:28:16.411Z,18.10
2022-08-02T02:30:53.427Z,17.50
2022-08-02T02:33:29.058Z,18.00
2022-08-02T02:36:01.721Z,18.00
2022-08-02T02:38:33.492Z,18.10
2022-08-02T02:41:05.372Z,17.70
2022-08-02T02:43:39.304Z,18.00
2022-08-02T02:46:11.931Z,17.00
2022-08-02T02:48:42.148Z,17.90
2022-08-02T02:51:14.109Z,17.50
2022-08-02T02:54:29.791Z,17.70
2022-08-02T02:56:36.992Z,17.70
2022-08-02T02:59:05.936Z,17.80
2022-08-02T03:01:56.685Z,17.80
2022-08-02T03:04:55.957Z,17.90
2022-08-02T03:07:18.162Z,18.00
2022-08-02T03:09:47.982Z,18.00
2022-08-02T03:12:30.853Z,17.50
2022-08-02T03:15:02.464Z,18.10
2022-08-02T03:17:42.833Z,18.10
2022-08-02T03:20:16.013Z,17.90
2022-08-02T03:22:48.457Z,17.50
2022-08-02T03:25:19.204Z,18.00
2022-08-02T03:27:48.148Z,16.70
2022-08-02T03:30:16.843Z,18.00
2022-08-02T03:32:49.508Z,17.90
2022-08-02T03:35:24.208Z,17.70
2022-08-02T03:37:56.987Z,17.70
2022-08-02T03:40:26.635Z,17.60
2022-08-02T03:42:56.024Z,17.70
2022-08-02T03:45:26.897Z,17.70
2022-08-02T03:47:58.749Z,17.80
2022-08-02T03:50:29.519Z,17.70
2022-08-02T03:52:59.332Z,17.60
2022-08-02T03:55:27.957Z,17.50
2022-08-02T03:57:56.551Z,17.50
2022-08-02T04:00:25.448Z,17.60
2022-08-02T04:02:54.499Z,17.70
2022-08-02T04:05:25.223Z,17.20
2022-08-02T04:08:34.975Z,17.70
2022-08-02T04:10:59.627Z,17.60
2022-08-02T04:13:35.928Z,17.40
2022-08-02T04:16:11.780Z,17.70
2022-08-02T04:18:47.674Z,17.70
2022-08-02T04:21:21.921Z,17.70
2022-08-02T04:23:52.917Z,17.70
2022-08-02T04:26:28.308Z,17.70
2022-08-02T04:28:58.864Z,17.60
2022-08-02T04:31:28.044Z,17.60
2022-08-02T04:33:56.980Z,17.60
2022-08-02T04:36:31.546Z,17.30
2022-08-02T04:39:00.698Z,17.80
2022-08-02T04:41:43.669Z,17.50
2022-08-02T04:44:13.256Z,17.80
2022-08-02T04:46:43.812Z,17.80
2022-08-02T04:49:12.670Z,17.80
2022-08-02T04:51:44.877Z,17.30
2022-08-02T04:54:14.033Z,17.70
2022-08-02T04:56:42.926Z,17.70
2022-08-02T04:59:12.468Z,17.70
2022-08-02T05:01:42.530Z,17.50
2022-08-02T05:04:11.292Z,17.90
2022-08-02T05:06:41.175Z,17.90
2022-08-02T05:09:09.806Z,18.00
2022-08-02T05:11:38.339Z,17.90
2022-08-02T05:14:07.437Z,18.10
2022-08-02T05:16:35.890Z,18.10
2022-08-02T05:19:04.483Z,18.00
2022-08-02T05:21:33.100Z,18.20
2022-08-02T05:24:03.092Z,18.30
2022-08-02T05:26:31.580Z,17.50
2022-08-02T05:29:00.045Z,18.40
2022-08-02T05:31:28.521Z,18.10
2022-08-02T05:33:56.978Z,18.60
2022-08-02T05:36:25.470Z,18.80
2022-08-02T05:38:59.547Z,17.90
2022-08-02T05:41:29.990Z,18.90
2022-08-02T05:43:58.602Z,18.30
2022-08-02T05:46:27.115Z,18.60
2022-08-02T05:48:55.607Z,19.40
2022-08-02T05:51:30.536Z,19.60
2022-08-02T05:54:13.958Z,18.80
2022-08-02T05:56:52.769Z,19.30
2022-08-02T05:59:33.842Z,20.20
2022-08-02T06:02:14.434Z,19.70
2022-08-02T06:05:00.621Z,20.50
2022-08-02T06:07:31.082Z,20.00
2022-08-02T06:10:00.722Z,20.70
2022-08-02T06:12:34.031Z,20.80
2022-08-02T06:15:04.894Z,20.80
2022-08-02T06:17:35.287Z,21.30
2022-08-02T06:20:13.636Z,21.20
2022-08-02T06:22:44.954Z,21.50
2022-08-02T06:25:50.227Z,21.70
2022-08-02T06:28:10.161Z,22.00
2022-08-02T06:30:41.043Z,22.00
2022-08-02T06:33:09.536Z,22.20
2022-08-02T06:35:47.033Z,22.20
2022-08-02T06:38:23.325Z,22.10
2022-08-02T06:41:04.321Z,22.30
2022-08-02T06:43:46.248Z,22.70
2022-08-02T06:46:57.422Z,22.80
2022-08-02T06:49:04.381Z,23.00
2022-08-02T06:51:34.210Z,23.20
2022-08-02T06:54:02.838Z,23.30
2022-08-02T06:56:31.525Z,23.40
2022-08-02T06:59:05.846Z,22.60
2022-08-02T07:01:38.542Z,23.50
2022-08-02T07:04:07.905Z,23.80
2022-08-02T07:06:36.886Z,24.00
2022-08-02T07:09:22.043Z,24.10
2022-08-02T07:11:50.744Z,23.40
2022-08-02T07:14:20.597Z,24.10
2022-08-02T07:16:49.213Z,23.60
2022-08-02T07:19:17.673Z,24.70
2022-08-02T07:21:56.980Z,25.20
2022-08-02T07:24:27.958Z,25.50
2022-08-02T07:27:10.428Z,25.60
2022-08-02T07:29:46.776Z,26.00
2022-08-02T07:32:17.060Z,25.70
2022-08-02T07:34:50.419Z,25.50
2022-08-02T07:37:35.992Z,25.60
2022-08-02T07:40:13.977Z,26.00
2022-08-02T07:42:44.246Z,25.00
2022-08-02T07:45:15.592Z,26.50
2022-08-02T07:47:45.705Z,25.40
2022-08-02T07:50:18.072Z,25.50
2022-08-02T07:52:47.432Z,26.80
2022-08-02T07:55:18.062Z,26.90
2022-08-02T07:57:47.529Z,27.00
2022-08-02T08:00:18.779Z,27.20
2022-08-02T08:02:47.842Z,26.00
2022-08-02T08:05:17.004Z,27.10
2022-08-02T08:07:45.602Z,27.10
2022-08-02T08:10:14.193Z,26.90
2022-08-02T08:12:42.867Z,27.70
2022-08-02T08:15:12.249Z,27.70
2022-08-02T08:17:42.161Z,26.50
2022-08-02T08:20:15.621Z,27.80
2022-08-02T08:22:44.515Z,27.80
2022-08-02T08:25:13.105Z,26.80
2022-08-02T08:27:50.282Z,28.40
2022-08-02T08:30:19.198Z,28.20
2022-08-02T08:32:49.176Z,28.30
2022-08-02T08:49:00.709Z,29.70
2022-08-02T08:51:37.151Z,29.20
2022-08-02T08:54:08.392Z,29.90
2022-08-02T08:56:37.943Z,30.10
2022-08-02T08:59:07.059Z,30.00
2022-08-02T09:01:50.059Z,30.10
2022-08-02T09:04:21.019Z,29.20
2022-08-02T09:06:49.956Z,28.50
2022-08-02T09:09:18.657Z,29.60
2022-08-02T09:11:47.238Z,27.60
2022-08-02T09:14:29.398Z,30.00
2022-08-02T09:17:12.316Z,30.30
2022-08-02T09:19:46.062Z,28.80
2022-08-02T09:22:16.472Z,29.30
2022-08-02T09:24:59.279Z,31.10
2022-08-02T09:28:15.276Z,29.30
2022-08-02T09:30:45.801Z,30.90
2022-08-02T09:33:18.092Z,31.10
2022-08-02T09:36:06.769Z,28.90
2022-08-02T09:38:38.073Z,29.30
2022-08-02T09:41:20.600Z,30.20
2022-08-02T09:43:52.406Z,30.10
2022-08-02T09:46:37.719Z,27.30
2022-08-02T09:49:13.306Z,29.90
2022-08-02T09:51:53.138Z,29.80
2022-08-02T09:54:25.289Z,30.00
2022-08-02T09:56:58.297Z,29.90
2022-08-02T09:59:29.450Z,30.80
2022-08-02T10:02:02.373Z,31.30
2022-08-02T10:04:52.077Z,31.80
2022-08-02T10:07:24.084Z,32.10
2022-08-02T10:09:53.372Z,31.70
2022-08-02T10:12:23.173Z,32.10
2022-08-02T10:14:52.955Z,32.50
2022-08-02T10:17:22.584Z,33.00
2022-08-02T10:20:02.491Z,32.90
2022-08-02T10:22:36.125Z,33.10
2022-08-02T10:25:06.615Z,33.10
2022-08-02T10:28:03.880Z,33.10
2022-08-02T10:30:30.225Z,32.70
2022-08-02T10:33:02.364Z,33.10
2022-08-02T10:35:37.537Z,32.70
2022-08-02T10:38:12.067Z,32.30
2022-08-02T10:40:48.788Z,32.30
2022-08-02T10:43:46.235Z,32.40
2022-08-02T10:46:34.709Z,32.70
2022-08-02T10:52:09.836Z,32.60
2022-08-02T10:54:42.731Z,32.50
2022-08-02T10:57:21.564Z,32.70
2022-08-02T10:59:51.975Z,32.90
2022-08-02T11:02:43.395Z,33.30
2022-08-02T11:05:15.821Z,33.80
2022-08-02T11:07:49.312Z,34.00
2022-08-02T11:10:47.797Z,34.20
2022-08-02T11:13:19.680Z,34.30
2022-08-02T11:16:10.716Z,34.50
2022-08-02T11:19:07.151Z,34.20
2022-08-02T11:21:37.501Z,34.40
2022-08-02T11:24:27.487Z,34.20
2022-08-02T11:26:58.765Z,33.80
2022-08-02T11:29:40.753Z,33.60
2022-08-02T11:32:16.307Z,34.10
2022-08-02T11:34:47.623Z,34.30
2022-08-02T11:37:29.645Z,34.60
2022-08-02T11:39:58.113Z,33.90
2022-08-02T11:42:35.089Z,34.70
2022-08-02T11:45:04.708Z,35.00
2022-08-02T11:47:33.555Z,35.20
2022-08-02T11:50:10.639Z,35.40
2022-08-02T11:52:39.984Z,35.50
2022-08-02T11:55:10.489Z,35.60
2022-08-02T11:58:04.161Z,35.70
2022-08-02T12:00:31.146Z,35.60
2022-08-02T12:02:59.772Z,35.70
2022-08-02T12:06:03.071Z,35.90
2022-08-02T12:08:19.041Z,35.60
2022-08-02T12:10:50.858Z,36.30
2022-08-02T12:13:20.934Z,36.20
2022-08-02T12:15:49.869Z,36.00
2022-08-02T12:18:38.327Z,36.10
2022-08-02T12:21:23.652Z,34.70
2022-08-02T12:23:59.749Z,36.00
2022-08-02T12:26:30.277Z,36.50
2022-08-02T12:29:01.663Z,36.50
2022-08-02T12:31:57.198Z,36.00
2022-08-02T12:34:30.068Z,35.20
2022-08-02T12:37:08.248Z,36.10
2022-08-02T12:39:43.143Z,35.90
2022-08-02T12:42:14.987Z,36.30
2022-08-02T12:44:55.384Z,35.60
2022-08-02T12:47:23.931Z,35.80
2022-08-02T12:50:14.348Z,35.90
2022-08-02T12:52:42.836Z,35.40
2022-08-02T12:55:25.973Z,36.20
2022-08-02T12:58:14.543Z,35.90
2022-08-02T13:00:55.662Z,36.40
2022-08-02T13:04:07.779Z,36.80
2022-08-02T13:09:12.565Z,37.30
2022-08-02T13:11:42.949Z,37.30
2022-08-02T13:14:13.324Z,37.30
2022-08-02T13:16:45.951Z,37.00
2022-08-02T13:19:16.195Z,36.30
2022-08-02T13:22:01.410Z,37.40
2022-08-02T13:24:40.570Z,37.60
2022-08-02T13:27:21.765Z,38.50
2022-08-02T13:29:50.425Z,38.80
2022-08-02T13:32:21.260Z,38.80
2022-08-02T13:34:50.109Z,38.60
2022-08-02T13:37:19.233Z,38.80
2022-08-02T13:40:11.784Z,38.50
2022-08-02T13:42:37.020Z,39.30
2022-08-02T13:45:12.462Z,39.40
2022-08-02T13:48:04.609Z,39.50
2022-08-02T13:50:34.099Z,39.70
2022-08-02T13:53:02.797Z,39.50
2022-08-02T13:55:31.392Z,39.40
2022-08-02T13:58:00.227Z,38.40
2022-08-02T14:00:35.428Z,39.10
2022-08-02T14:03:08.351Z,39.80
2022-08-02T14:05:48.554Z,40.10
2022-08-02T14:08:19.380Z,40.50
2022-08-02T14:10:48.717Z,38.20
2022-08-02T14:13:17.838Z,39.00
2022-08-02T14:15:46.710Z,39.40
2022-08-02T14:18:16.874Z,39.00
2022-08-02T14:20:46.203Z,40.50
2022-08-02T14:23:15.021Z,40.20
2022-08-02T14:25:44.161Z,40.20
2022-08-02T14:28:12.669Z,40.00
2022-08-02T14:30:41.439Z,40.10
2022-08-02T14:33:10.553Z,40.10
2022-08-02T14:35:40.536Z,40.10
2022-08-02T14:38:09.428Z,38.40
2022-08-02T14:40:38.116Z,39.10
2022-08-02T14:43:06.736Z,39.40
2022-08-02T14:45:40.870Z,39.40
2022-08-02T14:48:12.460Z,39.70
2022-08-02T14:50:42.672Z,39.30
2022-08-02T14:53:12.557Z,39.00
2022-08-02T14:55:43.494Z,38.10
2022-08-02T14:58:12.751Z,38.30
2022-08-02T15:00:43.855Z,38.30
2022-08-02T15:03:13.563Z,38.00
2022-08-02T15:05:43.497Z,37.70
2022-08-02T15:08:11.976Z,37.70
2022-08-02T15:10:46.739Z,36.30
2022-08-02T15:13:15.436Z,37.40
2022-08-02T15:15:43.983Z,37.50
2022-08-02T15:18:14.554Z,37.60
2022-08-02T15:20:56.232Z,37.50
2022-08-02T15:23:37.519Z,37.70
2022-08-02T15:26:07.289Z,37.90
2022-08-02T15:28:37.077Z,37.60
2022-08-02T15:31:05.649Z,36.80
2022-08-02T15:33:34.286Z,36.60
2022-08-02T15:36:05.478Z,36.30
2022-08-02T15:38:34.246Z,36.20
2022-08-02T15:41:03.298Z,35.30
2022-08-02T15:43:32.395Z,35.20
2022-08-02T15:46:01.325Z,35.60
2022-08-02T15:48:29.770Z,35.40
2022-08-02T15:50:58.532Z,35.80
2022-08-02T15:53:28.501Z,36.00
2022-08-02T15:56:04.315Z,36.40
2022-08-02T15:58:33.728Z,36.80
2022-08-02T16:01:11.095Z,36.80
2022-08-02T16:03:40.202Z,37.60
2022-08-02T16:06:08.659Z,37.80
2022-08-02T16:08:38.519Z,37.70
2022-08-02T16:11:13.754Z,38.00
2022-08-02T16:13:53.565Z,38.10
2022-08-02T16:16:24.297Z,36.90
2022-08-02T16:18:53.230Z,37.20
2022-08-02T16:21:22.858Z,37.00
2022-08-02T16:23:58.804Z,36.70
2022-08-02T16:26:32.181Z,36.80
2022-08-02T16:29:02.334Z,37.00
2022-08-02T16:31:31.062Z,36.30
2022-08-02T16:34:00.054Z,36.90
2022-08-02T16:36:29.194Z,37.00
2022-08-02T16:38:59.373Z,36.90
2022-08-02T16:41:50.489Z,36.70
2022-08-02T16:44:17.293Z,36.70
2022-08-02T16:46:46.217Z,35.60
2022-08-02T16:52:09.529Z,36.10
2022-08-02T16:54:39.554Z,35.90
2022-08-02T16:57:07.998Z,34.50
2022-08-02T16:59:42.752Z,35.20
2022-08-02T17:02:17.939Z,34.70
2022-08-02T17:04:48.503Z,34.40
2022-08-02T17:08:08.628Z,33.90
2022-08-02T17:10:09.781Z,34.10
2022-08-02T17:12:39.345Z,33.10
2022-08-02T17:16:01.027Z,33.20
2022-08-02T17:18:00.325Z,33.00
2022-08-02T17:20:29.336Z,32.60
2022-08-02T17:23:00.571Z,32.00
2022-08-02T17:25:32.071Z,32.00
2022-08-02T17:28:01.099Z,31.80
2022-08-02T17:30:29.856Z,31.20
2022-08-02T17:32:59.601Z,31.30
2022-08-02T17:35:43.836Z,31.20
2022-08-02T17:38:18.231Z,30.80
2022-08-02T17:40:57.052Z,30.70
2022-08-02T17:43:29.203Z,30.40
2022-08-02T17:45:59.812Z,30.20
2022-08-02T17:48:54.893Z,30.20
2022-08-02T17:52:14.668Z,30.00
2022-08-02T17:54:13.739Z,29.70
2022-08-02T17:56:43.579Z,29.50
2022-08-02T17:59:20.596Z,29.10
2022-08-02T18:01:52.900Z,28.90
2022-08-02T18:04:27.731Z,28.60
2022-08-02T18:07:03.837Z,28.60
2022-08-02T18:09:34.685Z,28.50
2022-08-02T18:12:04.831Z,28.30
2022-08-02T18:14:33.230Z,28.10
2022-08-02T18:17:04.732Z,28.00
2022-08-02T18:19:53.983Z,28.00
2022-08-02T18:22:24.910Z,27.90
2022-08-02T18:24:54.986Z,27.60
2022-08-02T18:27:24.892Z,27.50
2022-08-02T18:30:00.305Z,27.20
2022-08-02T18:33:53.965Z,27.20
2022-08-02T18:35:23.548Z,27.00
2022-08-02T18:37:57.231Z,26.90
2022-08-02T18:40:29.504Z,26.80
2022-08-02T18:42:59.362Z,26.80
2022-08-02T18:46:01.599Z,26.70
2022-08-02T18:48:20.408Z,26.60
2022-08-02T18:50:50.667Z,26.30
2022-08-02T18:53:28.002Z,26.10
2022-08-02T18:56:08.344Z,26.40
2022-08-02T18:58:38.190Z,24.60
2022-08-02T19:01:15.012Z,26.00
2022-08-02T19:03:55.159Z,25.50
2022-08-02T19:06:27.647Z,25.20
2022-08-02T19:09:10.376Z,25.00
2022-08-02T19:11:47.960Z,25.40
2022-08-02T19:14:24.458Z,25.40
2022-08-02T19:16:57.993Z,24.40
2022-08-02T19:19:28.926Z,25.20
2022-08-02T19:22:18.872Z,25.00
2022-08-02T19:24:51.889Z,25.00
2022-08-02T19:27:26.064Z,24.70
2022-08-02T19:30:03.261Z,24.90
2022-08-02T19:32:42.563Z,24.90
2022-08-02T19:35:30.804Z,24.60
2022-08-02T19:38:11.477Z,24.50
2022-08-02T19:40:42.285Z,24.40
2022-08-02T19:44:25.847Z,24.30
2022-08-02T19:46:02.700Z,24.30
2022-08-02T19:48:31.226Z,24.20
2022-08-02T19:51:01.501Z,24.20
2022-08-02T19:53:47.502Z,24.00
2022-08-02T19:56:20.406Z,24.00
2022-08-02T19:58:51.533Z,23.80
2022-08-02T20:01:36.609Z,23.00
2022-08-02T20:04:07.299Z,22.50
2022-08-02T20:06:45.505Z,23.10
2022-08-02T20:09:16.989Z,23.40
2022-08-02T20:11:54.005Z,23.50
2022-08-02T20:14:26.979Z,23.40
2022-08-02T20:16:58.410Z,23.40
2022-08-02T20:19:28.835Z,23.40
2022-08-02T20:22:00.638Z,23.30
2022-08-02T20:24:30.149Z,23.30
2022-08-02T20:26:59.768Z,23.30
2022-08-02T20:29:45.233Z,22.50
2022-08-02T20:32:23.692Z,22.00
2022-08-02T20:34:53.337Z,22.80
2022-08-02T20:37:56.006Z,22.90
2022-08-02T20:40:16.764Z,22.80
2022-08-02T20:42:48.105Z,21.60
2022-08-02T20:45:17.165Z,22.70
2022-08-02T20:47:50.847Z,22.60
2022-08-02T20:50:38.128Z,22.60
2022-08-02T20:53:08.578Z,22.40
2022-08-02T20:55:55.030Z,22.30
2022-08-02T20:58:26.852Z,22.10
2022-08-02T21:00:59.206Z,22.20
2022-08-02T21:03:32.228Z,21.00
2022-08-02T21:06:09.472Z,22.10
2022-08-02T21:08:38.344Z,21.90
2022-08-02T21:11:09.622Z,21.90
2022-08-02T21:13:47.198Z,21.90
2022-08-02T21:16:29.684Z,21.80
2022-08-02T21:19:00.528Z,21.80
2022-08-02T21:21:29.816Z,21.80
2022-08-02T21:24:01.442Z,21.80
2022-08-02T21:26:31.278Z,21.70
2022-08-02T21:31:51.200Z,21.70
2022-08-02T21:34:22.531Z,21.70
2022-08-02T21:36:55.982Z,21.70
2022-08-02T21:39:25.123Z,21.50
2022-08-02T21:41:53.609Z,21.30
2022-08-02T21:44:23.894Z,21.20
2022-08-02T21:46:54.871Z,21.10
2022-08-02T21:50:09.399Z,20.90
2022-08-02T21:52:16.512Z,21.00
2022-08-02T21:54:45.921Z,21.00
2022-08-02T21:57:16.847Z,21.10
2022-08-02T21:59:47.042Z,20.40
2022-08-02T22:02:18.003Z,21.00
2022-08-02T22:04:48.535Z,21.00
2022-08-02T22:07:23.877Z,21.10
2022-08-02T22:12:43.273Z,21.10
2022-08-02T22:15:13.411Z,21.10
2022-08-02T22:17:53.293Z,21.00
2022-08-02T22:20:29.977Z,20.30
2022-08-02T22:22:58.418Z,21.00
2022-08-02T22:25:37.368Z,21.00
2022-08-02T22:28:38.655Z,20.50
2022-08-02T22:30:58.243Z,21.00
2022-08-02T22:33:47.308Z,20.40
2022-08-02T22:36:31.888Z,20.90
2022-08-02T22:39:02.368Z,20.80
2022-08-02T22:42:01.295Z,20.70
2022-08-02T22:44:20.585Z,20.70
2022-08-02T22:46:50.001Z,20.60
2022-08-02T22:49:37.025Z,20.60
2022-08-02T22:52:07.770Z,20.60
2022-08-02T22:54:36.354Z,20.50
2022-08-02T22:57:06.549Z,20.60
2022-08-02T22:58:35.065Z,36.50
2022-08-02T22:59:02.909Z,21.80
2022-08-02T22:59:40.749Z,20.40
2022-08-02T23:02:10.332Z,20.50
2022-08-02T23:04:39.171Z,20.50
2022-08-02T23:07:09.033Z,20.50
2022-08-02T23:09:37.786Z,20.50
2022-08-02T23:12:06.986Z,20.40
2022-08-02T23:14:37.163Z,20.40
2022-08-02T23:17:23.044Z,20.40
2022-08-02T23:19:54.091Z,20.40
2022-08-02T23:22:30.112Z,20.50
2022-08-02T23:25:02.346Z,20.40
2022-08-02T23:27:31.894Z,20.40
2022-08-02T23:30:01.223Z,20.40
2022-08-02T23:32:30.398Z,20.30
2022-08-02T23:34:59.505Z,20.30
2022-08-02T23:37:29.290Z,20.20
2022-08-02T23:40:31.389Z,20.30
2022-08-02T23:43:13.281Z,20.10
2022-08-02T23:45:45.000Z,20.00
2022-08-02T23:48:13.538Z,20.10
2022-08-02T23:50:42.081Z,20.10
2022-08-02T23:53:11.899Z,20.10
2022-08-02T23:55:40.308Z,19.70
2022-08-02T23:58:08.755Z,20.00
